createdAt,value
2019-05-07T00:00:26.424Z,48.95
2019-05-07T00:02:55.025Z,47.93
2019-05-07T00:05:23.643Z,48.51
2019-05-07T00:07:52.248Z,49.62
2019-05-07T00:10:21.846Z,49.66
2019-05-07T00:12:52.072Z,50.07
2019-05-07T00:15:22.870Z,50.51
2019-05-07T00:17:52.269Z,49.96
2019-05-07T00:20:23.082Z,52.49
2019-05-07T00:22:53.319Z,49.35
2019-05-07T00:25:22.837Z,50.00
2019-05-07T00:27:52.349Z,52.49
2019-05-07T00:30:22.359Z,50.07
2019-05-07T00:32:53.083Z,52.17
2019-05-07T00:35:24.190Z,49.38
2019-05-07T00:37:58.670Z,50.44
2019-05-07T00:40:49.159Z,51.32
2019-05-07T00:43:22.672Z,49.59
2019-05-07T00:46:02.139Z,51.98
2019-05-07T00:48:30.138Z,50.49
2019-05-07T00:51:17.784Z,48.07
2019-05-07T00:53:46.454Z,48.85
2019-05-07T00:56:15.153Z,49.57
2019-05-07T00:58:43.778Z,48.49
2019-05-07T01:01:13.082Z,48.83
2019-05-07T01:03:42.465Z,50.46
2019-05-07T01:06:12.859Z,50.54
2019-05-07T01:08:43.009Z,49.82
2019-05-07T01:11:13.123Z,48.01
2019-05-07T01:13:43.196Z,49.26
2019-05-07T01:16:12.906Z,49.54
2019-05-07T01:18:42.223Z,48.52
2019-05-07T01:21:13.091Z,46.94
2019-05-07T01:23:42.742Z,49.41
2019-05-07T01:26:12.418Z,49.48
2019-05-07T01:29:02.477Z,47.73
2019-05-07T01:31:34.317Z,49.91
2019-05-07T01:34:18.303Z,51.19
2019-05-07T01:36:46.921Z,49.95
2019-05-07T01:39:15.808Z,48.93
2019-05-07T01:41:44.440Z,49.58
2019-05-07T01:44:13.325Z,48.02
2019-05-07T01:46:42.272Z,49.45
2019-05-07T01:49:12.588Z,49.65
2019-05-07T01:51:42.292Z,48.64
2019-05-07T01:54:12.969Z,48.29
2019-05-07T01:56:42.733Z,49.52
2019-05-07T01:59:12.171Z,49.34
2019-05-07T02:01:42.947Z,50.07
2019-05-07T02:04:32.701Z,49.73
2019-05-07T02:07:23.623Z,50.28
2019-05-07T02:09:59.498Z,48.42
2019-05-07T02:12:31.890Z,48.95
2019-05-07T02:15:02.686Z,49.46
2019-05-07T02:17:32.179Z,50.17
2019-05-07T02:20:05.561Z,51.46
2019-05-07T02:22:34.589Z,51.00
2019-05-07T02:25:03.493Z,49.76
2019-05-07T02:27:32.916Z,49.76
2019-05-07T02:30:04.103Z,50.81
2019-05-07T02:32:33.397Z,48.73
2019-05-07T02:35:04.032Z,48.90
2019-05-07T02:37:48.454Z,49.72
2019-05-07T02:40:23.399Z,51.57
2019-05-07T02:42:54.054Z,49.19
2019-05-07T02:45:44.296Z,51.02
2019-05-07T02:48:13.977Z,52.14
2019-05-07T02:51:03.866Z,51.88
2019-05-07T02:53:38.572Z,51.60
2019-05-07T02:56:07.431Z,52.54
2019-05-07T02:58:36.037Z,50.24
2019-05-07T03:01:05.293Z,52.61
2019-05-07T03:03:33.988Z,50.84
2019-05-07T03:06:03.267Z,53.10
2019-05-07T03:08:33.062Z,50.43
2019-05-07T03:11:03.381Z,52.97
2019-05-07T03:13:33.662Z,51.96
2019-05-07T03:16:03.763Z,52.36
2019-05-07T03:18:33.534Z,55.16
2019-05-07T03:21:12.553Z,51.78
2019-05-07T03:23:49.959Z,50.52
2019-05-07T03:26:23.167Z,51.28
2019-05-07T03:28:54.088Z,52.41
2019-05-07T03:31:36.434Z,50.52
2019-05-07T03:34:16.117Z,52.50
2019-05-07T03:36:49.276Z,51.33
2019-05-07T03:39:18.266Z,50.35
2019-05-07T03:41:46.867Z,50.02
2019-05-07T03:44:23.821Z,50.01
2019-05-07T03:47:01.592Z,52.14
2019-05-07T03:49:34.035Z,50.47
2019-05-07T03:52:04.288Z,50.35
2019-05-07T03:54:33.979Z,49.70
2019-05-07T03:57:10.279Z,49.22
2019-05-07T03:59:34.350Z,51.85
2019-05-07T04:02:03.476Z,50.41
2019-05-07T04:04:33.227Z,50.24
2019-05-07T04:07:03.369Z,50.44
2019-05-07T04:09:33.313Z,48.28
2019-05-07T04:12:03.864Z,49.96
2019-05-07T04:14:34.394Z,49.79
2019-05-07T04:17:14.358Z,48.25
2019-05-07T04:19:34.441Z,50.51
2019-05-07T04:22:04.384Z,48.50
2019-05-07T04:24:42.877Z,48.31
2019-05-07T04:27:27.807Z,48.46
2019-05-07T04:29:56.407Z,48.42
2019-05-07T04:32:28.847Z,50.42
2019-05-07T04:35:04.411Z,50.11
2019-05-07T04:37:33.453Z,50.67
2019-05-07T04:40:03.195Z,48.90
2019-05-07T04:42:33.401Z,48.63
2019-05-07T04:45:04.296Z,47.42
2019-05-07T04:47:42.107Z,48.40
2019-05-07T04:50:04.069Z,47.69
2019-05-07T04:52:35.451Z,48.21
2019-05-07T04:55:04.945Z,48.75
2019-05-07T04:57:33.658Z,48.60
2019-05-07T05:00:03.365Z,46.55
2019-05-07T05:02:52.858Z,48.08
2019-05-07T05:05:23.637Z,47.50
2019-05-07T05:07:53.346Z,47.99
2019-05-07T05:10:23.237Z,48.08
2019-05-07T05:12:53.594Z,49.70
2019-05-07T05:15:22.727Z,47.34
2019-05-07T05:17:53.852Z,47.46
2019-05-07T05:20:28.256Z,47.00
2019-05-07T05:23:18.739Z,46.56
2019-05-07T05:25:47.375Z,47.52
2019-05-07T05:28:16.309Z,45.97
2019-05-07T05:30:49.051Z,47.71
2019-05-07T05:33:17.701Z,46.79
2019-05-07T05:35:46.307Z,46.45
2019-05-07T05:38:14.893Z,47.75
2019-05-07T05:40:43.519Z,48.48
2019-05-07T05:43:22.331Z,48.22
2019-05-07T05:45:53.006Z,47.70
2019-05-07T05:48:22.414Z,46.66
2019-05-07T05:50:57.597Z,46.71
2019-05-07T05:53:32.707Z,46.58
2019-05-07T05:56:04.796Z,46.01
2019-05-07T05:58:49.626Z,46.07
2019-05-07T06:01:37.983Z,45.37
2019-05-07T06:04:23.390Z,46.03
2019-05-07T06:07:10.590Z,45.46
2019-05-07T06:09:35.324Z,45.13
2019-05-07T06:12:19.080Z,45.03
2019-05-07T06:14:54.522Z,47.40
2019-05-07T06:17:34.080Z,48.35
2019-05-07T06:20:22.574Z,47.46
2019-05-07T06:23:09.071Z,47.15
2019-05-07T06:25:38.010Z,46.68
2019-05-07T06:28:06.682Z,45.37
2019-05-07T06:30:35.552Z,45.08
2019-05-07T06:33:04.172Z,46.35
2019-05-07T06:35:33.282Z,45.23
2019-05-07T06:38:03.472Z,45.31
2019-05-07T06:40:51.916Z,45.20
2019-05-07T06:43:25.553Z,42.73
2019-05-07T06:45:56.135Z,43.18
2019-05-07T06:48:37.639Z,44.92
2019-05-07T06:50:58.140Z,43.54
2019-05-07T06:53:27.844Z,43.77
2019-05-07T06:55:57.310Z,42.96
2019-05-07T06:58:29.091Z,43.27
2019-05-07T07:01:12.085Z,43.12
2019-05-07T07:03:59.453Z,42.22
2019-05-07T07:06:32.186Z,43.17
2019-05-07T07:09:25.280Z,42.63
2019-05-07T07:11:57.686Z,42.35
2019-05-07T07:14:26.582Z,42.35
2019-05-07T07:16:55.207Z,41.35
2019-05-07T07:19:23.832Z,40.84
2019-05-07T07:21:52.851Z,41.88
2019-05-07T07:24:22.292Z,41.05
2019-05-07T07:26:52.794Z,41.12
2019-05-07T07:29:23.668Z,41.12
2019-05-07T07:31:55.543Z,40.22
2019-05-07T07:34:25.557Z,42.42
2019-05-07T07:37:12.845Z,41.53
2019-05-07T07:39:39.476Z,41.53
2019-05-07T07:42:08.205Z,42.42
2019-05-07T07:44:36.837Z,40.39
2019-05-07T07:47:05.784Z,42.86
2019-05-07T07:49:34.487Z,41.16
2019-05-07T07:52:03.406Z,41.16
2019-05-07T07:54:32.242Z,43.07
2019-05-07T07:57:09.897Z,43.50
2019-05-07T07:59:45.327Z,44.36
2019-05-07T08:02:18.819Z,42.16
2019-05-07T08:04:47.445Z,42.71
2019-05-07T08:07:16.191Z,44.24
2019-05-07T08:09:44.954Z,43.40
2019-05-07T08:12:13.623Z,42.14
2019-05-07T08:14:42.853Z,39.53
2019-05-07T08:17:12.963Z,38.10
2019-05-07T08:19:42.926Z,34.96
2019-05-07T08:22:12.190Z,36.06
2019-05-07T08:24:42.656Z,35.06
2019-05-07T08:27:14.779Z,34.17
2019-05-07T08:29:42.990Z,33.66
2019-05-07T08:32:29.652Z,34.85
2019-05-07T08:35:03.509Z,34.27
2019-05-07T08:37:32.228Z,34.72
2019-05-07T08:40:03.077Z,34.38
2019-05-07T08:42:32.092Z,36.67
2019-05-07T08:45:08.231Z,35.97
2019-05-07T08:47:42.544Z,36.91
2019-05-07T08:50:11.810Z,36.31
2019-05-07T08:52:41.959Z,35.79
2019-05-07T08:55:12.586Z,36.31
2019-05-07T08:57:42.034Z,34.65
2019-05-07T09:00:12.725Z,33.20
2019-05-07T09:02:42.169Z,32.96
2019-05-07T09:05:12.025Z,31.40
2019-05-07T09:07:42.570Z,31.28
2019-05-07T09:10:12.632Z,31.33
2019-05-07T09:12:42.953Z,30.33
2019-05-07T09:15:12.477Z,29.59
2019-05-07T09:17:42.280Z,29.82
2019-05-07T09:20:12.556Z,28.08
2019-05-07T09:22:42.678Z,27.13
2019-05-07T09:25:12.886Z,27.04
2019-05-07T09:27:52.436Z,24.90
2019-05-07T09:30:28.602Z,22.83
2019-05-07T09:33:05.020Z,22.59
2019-05-07T09:35:42.420Z,23.65
2019-05-07T09:38:12.176Z,25.86
2019-05-07T09:40:42.178Z,28.16
2019-05-07T09:43:11.760Z,26.20
2019-05-07T09:45:42.057Z,25.24
2019-05-07T09:48:11.985Z,25.47
2019-05-07T09:50:42.842Z,24.46
2019-05-07T09:53:12.764Z,24.76
2019-05-07T09:55:42.573Z,24.32
2019-05-07T09:58:12.538Z,26.47
2019-05-07T10:00:42.463Z,33.47
2019-05-07T10:03:12.837Z,33.29
2019-05-07T10:05:42.729Z,34.98
2019-05-07T10:08:12.872Z,34.08
2019-05-07T10:10:42.656Z,34.25
2019-05-07T10:13:27.362Z,34.44
2019-05-07T10:15:56.304Z,34.68
2019-05-07T10:18:24.984Z,34.22
2019-05-07T10:20:54.261Z,36.40
2019-05-07T10:23:23.447Z,36.23
2019-05-07T10:25:56.608Z,36.29
2019-05-07T10:28:25.394Z,35.87
2019-05-07T10:30:54.973Z,35.58
2019-05-07T10:33:24.262Z,37.01
2019-05-07T10:35:53.127Z,35.56
2019-05-07T10:38:22.029Z,36.42
2019-05-07T10:40:50.909Z,36.08
2019-05-07T10:43:19.509Z,36.13
2019-05-07T10:46:12.756Z,34.68
2019-05-07T10:48:58.304Z,37.70
2019-05-07T10:51:27.343Z,36.66
2019-05-07T10:53:55.944Z,36.42
2019-05-07T10:56:24.628Z,36.27
2019-05-07T10:58:53.310Z,36.53
2019-05-07T11:01:35.189Z,36.01
2019-05-07T11:04:03.812Z,36.51
2019-05-07T11:06:32.504Z,36.51
2019-05-07T11:09:01.559Z,39.15
2019-05-07T11:11:31.880Z,38.54
2019-05-07T11:14:01.914Z,38.54
2019-05-07T11:16:34.968Z,39.06
2019-05-07T11:19:04.058Z,39.06
2019-05-07T11:21:33.561Z,37.06
2019-05-07T11:24:03.311Z,34.89
2019-05-07T11:26:32.888Z,34.89
2019-05-07T11:29:02.534Z,34.87
2019-05-07T11:31:33.547Z,35.39
2019-05-07T11:34:02.770Z,35.81
2019-05-07T11:36:32.025Z,34.04
2019-05-07T11:39:02.341Z,35.79
2019-05-07T11:41:42.298Z,37.42
2019-05-07T11:44:23.024Z,37.95
2019-05-07T11:47:09.315Z,36.07
2019-05-07T11:49:55.860Z,36.59
2019-05-07T11:52:31.679Z,37.19
2019-05-07T11:55:00.217Z,38.25
2019-05-07T11:57:29.205Z,37.82
2019-05-07T11:59:57.806Z,36.95
2019-05-07T12:02:27.037Z,35.56
2019-05-07T12:04:55.651Z,35.30
2019-05-07T12:07:24.531Z,37.51
2019-05-07T12:09:53.123Z,37.03
2019-05-07T12:12:22.248Z,35.79
2019-05-07T12:14:51.821Z,36.16
2019-05-07T12:17:22.378Z,35.42
2019-05-07T12:19:52.695Z,35.03
2019-05-07T12:22:39.458Z,33.87
2019-05-07T12:25:08.202Z,34.45
2019-05-07T12:27:38.289Z,34.39
2019-05-07T12:30:08.606Z,32.43
2019-05-07T12:32:43.210Z,32.86
2019-05-07T12:35:14.620Z,32.90
2019-05-07T12:37:46.228Z,34.78
2019-05-07T12:40:14.343Z,35.99
2019-05-07T12:42:45.496Z,35.77
2019-05-07T12:45:13.566Z,32.88
2019-05-07T12:47:42.405Z,34.97
2019-05-07T12:50:11.214Z,34.80
2019-05-07T12:52:49.201Z,33.48
2019-05-07T12:55:25.823Z,35.05
2019-05-07T12:57:54.518Z,35.92
2019-05-07T13:00:46.207Z,34.96
2019-05-07T13:03:21.778Z,33.48
2019-05-07T13:05:52.082Z,33.62
2019-05-07T13:08:22.975Z,33.02
2019-05-07T13:10:51.975Z,33.87
2019-05-07T13:13:20.631Z,33.18
2019-05-07T13:15:51.653Z,32.01
2019-05-07T13:18:19.722Z,32.58
2019-05-07T13:20:48.925Z,35.08
2019-05-07T13:23:17.558Z,34.02
2019-05-07T13:25:46.234Z,35.63
2019-05-07T13:28:14.852Z,34.94
2019-05-07T13:30:43.859Z,35.06
2019-05-07T13:33:13.370Z,34.52
2019-05-07T13:35:44.396Z,37.14
2019-05-07T13:38:51.839Z,37.53
2019-05-07T13:41:41.749Z,38.13
2019-05-07T13:44:38.721Z,36.49
2019-05-07T13:47:27.520Z,36.24
2019-05-07T13:49:56.313Z,36.02
2019-05-07T13:52:25.349Z,36.07
2019-05-07T13:54:54.504Z,34.08
2019-05-07T13:57:23.474Z,35.14
2019-05-07T13:59:53.161Z,34.76
2019-05-07T14:02:23.467Z,33.26
2019-05-07T14:04:52.620Z,32.59
2019-05-07T14:07:21.844Z,31.47
2019-05-07T14:09:52.480Z,32.84
2019-05-07T14:12:22.892Z,31.76
2019-05-07T14:14:53.062Z,32.66
2019-05-07T14:17:21.970Z,30.56
2019-05-07T14:19:52.840Z,30.91
2019-05-07T14:22:22.485Z,29.37
2019-05-07T14:24:52.963Z,29.79
2019-05-07T14:27:21.940Z,30.61
2019-05-07T14:29:51.993Z,30.08
2019-05-07T14:32:39.341Z,30.85
2019-05-07T14:35:32.247Z,30.46
2019-05-07T14:38:07.818Z,29.42
2019-05-07T14:40:36.485Z,29.44
2019-05-07T14:43:10.128Z,29.79
2019-05-07T14:45:38.905Z,28.23
2019-05-07T14:48:07.770Z,29.84
2019-05-07T14:50:36.627Z,31.96
2019-05-07T14:53:05.502Z,30.01
2019-05-07T14:55:34.343Z,30.13
2019-05-07T14:58:03.051Z,29.26
2019-05-07T15:00:31.725Z,29.71
2019-05-07T15:03:01.951Z,30.12
2019-05-07T15:05:32.221Z,30.63
2019-05-07T15:08:08.454Z,31.56
2019-05-07T15:10:32.591Z,31.58
2019-05-07T15:13:02.270Z,32.29
2019-05-07T15:15:31.643Z,32.03
2019-05-07T15:18:05.335Z,30.05
2019-05-07T15:20:34.017Z,30.68
2019-05-07T15:23:08.058Z,30.13
2019-05-07T15:25:36.770Z,30.79
2019-05-07T15:28:05.883Z,30.14
2019-05-07T15:30:52.371Z,31.87
2019-05-07T15:33:21.787Z,32.75
2019-05-07T15:35:52.104Z,31.20
2019-05-07T15:38:21.854Z,31.34
2019-05-07T15:40:51.935Z,31.31
2019-05-07T15:43:21.040Z,31.50
2019-05-07T15:45:49.922Z,32.46
2019-05-07T15:48:18.621Z,33.93
2019-05-07T15:50:47.529Z,32.80
2019-05-07T15:53:21.902Z,31.47
2019-05-07T15:55:52.316Z,31.07
2019-05-07T15:58:22.710Z,31.31
2019-05-07T16:00:51.812Z,31.36
2019-05-07T16:03:25.707Z,31.13
2019-05-07T16:05:54.341Z,30.96
2019-05-07T16:08:24.177Z,32.20
2019-05-07T16:10:53.225Z,31.89
2019-05-07T16:13:25.719Z,31.44
2019-05-07T16:15:54.342Z,32.17
2019-05-07T16:18:27.923Z,32.27
2019-05-07T16:20:56.577Z,34.09
2019-05-07T16:23:25.175Z,34.34
2019-05-07T16:25:54.165Z,34.01
2019-05-07T16:28:22.832Z,35.55
2019-05-07T16:30:52.149Z,34.23
2019-05-07T16:33:20.835Z,34.63
2019-05-07T16:35:49.455Z,34.68
2019-05-07T16:38:18.324Z,33.60
2019-05-07T16:40:46.963Z,33.29
2019-05-07T16:43:15.598Z,32.21
2019-05-07T16:45:44.536Z,34.14
2019-05-07T16:48:13.156Z,32.78
2019-05-07T16:50:41.808Z,31.99
2019-05-07T16:53:13.420Z,31.20
2019-05-07T16:55:42.858Z,31.99
2019-05-07T16:58:23.298Z,32.17
2019-05-07T17:00:54.571Z,32.55
2019-05-07T17:03:28.114Z,31.36
2019-05-07T17:05:56.792Z,32.01
2019-05-07T17:08:31.918Z,31.74
2019-05-07T17:11:02.891Z,31.71
2019-05-07T17:13:31.963Z,31.25
2019-05-07T17:16:03.359Z,32.06
2019-05-07T17:18:32.795Z,31.49
2019-05-07T17:21:02.056Z,31.63
2019-05-07T17:23:43.806Z,31.01
2019-05-07T17:26:01.327Z,30.92
2019-05-07T17:28:31.929Z,32.22
2019-05-07T17:31:02.911Z,33.64
2019-05-07T17:33:31.953Z,33.18
2019-05-07T17:36:02.424Z,32.29
2019-05-07T17:38:32.184Z,32.53
2019-05-07T17:41:10.807Z,32.97
2019-05-07T17:43:32.488Z,32.05
2019-05-07T17:46:02.822Z,32.05
2019-05-07T17:48:32.869Z,31.34
2019-05-07T17:51:24.172Z,31.97
2019-05-07T17:53:59.657Z,31.72
2019-05-07T17:56:24.113Z,31.75
2019-05-07T17:58:52.947Z,31.90
2019-05-07T18:01:26.544Z,32.58
2019-05-07T18:03:55.321Z,32.28
2019-05-07T18:06:24.017Z,34.15
2019-05-07T18:08:52.694Z,32.45
2019-05-07T18:11:24.183Z,34.38
2019-05-07T18:13:51.892Z,33.71
2019-05-07T18:16:35.432Z,33.71
2019-05-07T18:19:04.439Z,33.41
2019-05-07T18:21:33.342Z,33.57
2019-05-07T18:24:13.012Z,34.60
2019-05-07T18:26:33.763Z,34.76
2019-05-07T18:29:03.525Z,35.03
2019-05-07T18:31:57.587Z,35.02
2019-05-07T18:34:26.637Z,35.56
2019-05-07T18:36:55.615Z,36.36
2019-05-07T18:39:24.249Z,37.09
2019-05-07T18:41:52.890Z,36.70
2019-05-07T18:44:22.323Z,36.25
2019-05-07T18:46:52.891Z,36.87
2019-05-07T18:49:21.575Z,36.87
2019-05-07T18:51:52.100Z,37.81
2019-05-07T18:54:30.524Z,37.81
2019-05-07T18:56:52.919Z,38.34
2019-05-07T18:59:24.112Z,37.29
2019-05-07T19:01:53.018Z,38.68
2019-05-07T19:04:22.337Z,38.68
2019-05-07T19:06:51.849Z,39.00
2019-05-07T19:09:22.493Z,38.83
2019-05-07T19:11:52.280Z,39.45
2019-05-07T19:14:22.663Z,39.99
2019-05-07T19:16:52.642Z,39.36
2019-05-07T19:19:22.145Z,38.69
2019-05-07T19:21:52.995Z,38.90
2019-05-07T19:24:23.068Z,38.67
2019-05-07T19:26:52.869Z,38.78
2019-05-07T19:29:23.258Z,38.15
2019-05-07T19:31:52.608Z,37.44
2019-05-07T19:34:21.922Z,38.04
2019-05-07T19:36:51.987Z,38.62
2019-05-07T19:39:23.411Z,38.62
2019-05-07T19:41:52.382Z,39.45
2019-05-07T19:44:21.085Z,39.65
2019-05-07T19:46:52.239Z,39.69
2019-05-07T19:49:20.364Z,39.14
2019-05-07T19:51:48.978Z,39.56
2019-05-07T19:54:17.582Z,38.17
2019-05-07T19:56:46.228Z,39.14
2019-05-07T19:59:14.903Z,38.80
2019-05-07T20:01:47.624Z,38.80
2019-05-07T20:04:16.473Z,39.36
2019-05-07T20:06:45.168Z,37.80
2019-05-07T20:09:15.855Z,40.47
2019-05-07T20:11:46.748Z,39.63
2019-05-07T20:14:15.425Z,38.54
2019-05-07T20:16:44.037Z,39.53
2019-05-07T20:19:12.726Z,38.70
2019-05-07T20:21:41.340Z,38.98
2019-05-07T20:24:12.302Z,38.82
2019-05-07T20:26:43.005Z,38.82
2019-05-07T20:29:12.447Z,39.41
2019-05-07T20:31:42.362Z,38.65
2019-05-07T20:34:13.069Z,37.15
2019-05-07T20:36:42.748Z,38.50
2019-05-07T20:39:12.795Z,38.50
2019-05-07T20:41:42.949Z,38.72
2019-05-07T20:44:12.199Z,39.44
2019-05-07T20:46:42.137Z,38.69
2019-05-07T20:49:12.871Z,38.70
2019-05-07T20:51:41.852Z,39.41
2019-05-07T20:54:29.651Z,40.47
2019-05-07T20:57:13.067Z,40.27
2019-05-07T20:59:41.300Z,41.12
2019-05-07T21:02:11.909Z,40.25
2019-05-07T21:04:42.334Z,39.72
2019-05-07T21:07:11.807Z,40.51
2019-05-07T21:09:42.280Z,39.33
2019-05-07T21:12:12.857Z,39.07
2019-05-07T21:14:41.854Z,41.85
2019-05-07T21:17:11.972Z,39.71
2019-05-07T21:19:42.852Z,39.25
2019-05-07T21:22:12.995Z,40.21
2019-05-07T21:24:42.328Z,38.80
2019-05-07T21:27:12.176Z,39.77
2019-05-07T21:29:42.274Z,39.21
2019-05-07T21:32:12.359Z,39.53
2019-05-07T21:34:42.121Z,38.19
2019-05-07T21:37:12.573Z,39.12
2019-05-07T21:39:42.435Z,40.10
2019-05-07T21:42:13.872Z,39.68
2019-05-07T21:44:43.061Z,38.97
2019-05-07T21:47:12.635Z,39.88
2019-05-07T21:49:43.057Z,39.86
2019-05-07T21:52:12.697Z,41.21
2019-05-07T21:54:48.032Z,41.74
2019-05-07T21:57:33.650Z,42.24
2019-05-07T22:00:15.777Z,42.84
2019-05-07T22:02:44.517Z,42.97
2019-05-07T22:07:54.122Z,43.10
2019-05-07T22:10:22.270Z,42.51
2019-05-07T22:12:52.106Z,42.54
2019-05-07T22:15:22.536Z,43.04
2019-05-07T22:17:52.055Z,43.86
2019-05-07T22:20:21.053Z,43.82
2019-05-07T22:22:49.667Z,44.39
2019-05-07T22:25:18.296Z,44.30
2019-05-07T22:27:46.949Z,45.22
2019-05-07T22:30:23.195Z,44.03
2019-05-07T22:32:56.407Z,45.47
2019-05-07T22:35:37.827Z,45.29
2019-05-07T22:38:06.495Z,44.90
2019-05-07T22:40:35.232Z,45.15
2019-05-07T22:43:03.999Z,45.31
2019-05-07T22:45:32.975Z,44.95
2019-05-07T22:48:02.835Z,46.16
2019-05-07T22:50:33.156Z,45.64
2019-05-07T22:53:02.067Z,45.28
2019-05-07T22:55:32.692Z,45.75
2019-05-07T22:58:05.910Z,45.65
2019-05-07T23:00:37.617Z,47.19
2019-05-07T23:03:06.564Z,47.34
2019-05-07T23:05:35.181Z,47.04
2019-05-07T23:08:04.050Z,46.55
2019-05-07T23:10:33.388Z,45.96
2019-05-07T23:13:02.418Z,45.55
2019-05-07T23:15:32.200Z,45.21
2019-05-07T23:18:04.186Z,45.31
2019-05-07T23:20:31.996Z,44.93
2019-05-07T23:23:00.778Z,45.15
2019-05-07T23:25:29.629Z,44.91
2019-05-07T23:27:58.265Z,44.96
2019-05-07T23:30:26.861Z,46.30
2019-05-07T23:32:55.757Z,45.20
2019-05-07T23:35:24.464Z,45.35
2019-05-07T23:37:53.138Z,44.61
2019-05-07T23:40:41.845Z,44.37
2019-05-07T23:43:12.262Z,44.15
2019-05-07T23:45:42.056Z,42.29
2019-05-07T23:48:12.311Z,42.50
2019-05-07T23:50:41.852Z,41.90
2019-05-07T23:53:12.829Z,40.80
2019-05-07T23:55:42.463Z,40.95
2019-05-07T23:58:13.830Z,38.95
